createdAt,value
2018-03-01T00:00:21.715Z,92.90
2018-03-01T00:02:48.351Z,93.00
2018-03-01T00:05:15.679Z,93.50
2018-03-01T00:07:42.557Z,93.20
2018-03-01T00:10:09.345Z,93.10
2018-03-01T00:12:36.166Z,92.80
2018-03-01T00:15:03.548Z,92.50
2018-03-01T00:17:30.109Z,92.50
2018-03-01T00:19:57.598Z,92.80
2018-03-01T00:22:35.437Z,92.80
2018-03-01T00:25:02.185Z,92.60
2018-03-01T00:27:28.879Z,92.50
2018-03-01T00:29:56.443Z,92.80
2018-03-01T00:32:23.174Z,92.80
2018-03-01T00:34:49.819Z,92.80
2018-03-01T00:37:16.417Z,92.90
2018-03-01T00:39:43.726Z,92.90
2018-03-01T00:42:10.287Z,92.80
2018-03-01T00:44:36.851Z,92.80
2018-03-01T00:47:03.516Z,92.70
2018-03-01T00:49:36.690Z,92.50
2018-03-01T00:52:03.426Z,92.70
2018-03-01T00:54:30.088Z,92.70
2018-03-01T00:56:56.801Z,92.80
2018-03-01T00:59:24.233Z,92.80
2018-03-01T01:01:50.880Z,92.80
2018-03-01T01:04:17.545Z,92.60
2018-03-01T01:06:44.225Z,92.60
2018-03-01T01:09:10.947Z,92.80
2018-03-01T01:11:37.581Z,92.60
2018-03-01T01:14:04.266Z,92.90
2018-03-01T01:16:31.666Z,92.60
2018-03-01T01:18:58.257Z,92.60
2018-03-01T01:21:24.915Z,92.30
2018-03-01T01:23:52.343Z,92.80
2018-03-01T01:26:19.011Z,92.50
2018-03-01T01:28:45.666Z,92.40
2018-03-01T01:31:12.469Z,92.50
2018-03-01T01:33:39.868Z,92.60
2018-03-01T01:36:06.450Z,92.60
2018-03-01T01:38:33.071Z,92.30
2018-03-01T01:40:59.703Z,92.50
2018-03-01T01:43:26.267Z,92.50
2018-03-01T01:45:52.897Z,92.50
2018-03-01T01:48:19.510Z,92.50
2018-03-01T01:50:58.253Z,92.40
2018-03-01T01:53:24.842Z,92.50
2018-03-01T01:55:51.533Z,92.70
2018-03-01T01:58:18.126Z,92.60
2018-03-01T02:00:44.724Z,92.70
2018-03-01T02:03:12.251Z,92.90
2018-03-01T02:05:39.115Z,92.60
2018-03-01T02:08:05.736Z,92.50
2018-03-01T02:10:33.111Z,92.20
2018-03-01T02:13:00.501Z,92.30
2018-03-01T02:15:27.176Z,92.30
2018-03-01T02:17:53.720Z,92.60
2018-03-01T02:20:20.300Z,92.40
2018-03-01T02:22:46.867Z,92.50
2018-03-01T02:25:14.185Z,92.60
2018-03-01T02:27:41.047Z,92.60
2018-03-01T02:30:07.727Z,92.60
2018-03-01T02:32:34.439Z,92.50
2018-03-01T02:35:01.109Z,92.60
2018-03-01T02:37:27.657Z,92.50
2018-03-01T02:39:54.243Z,92.40
2018-03-01T02:42:22.476Z,92.50
2018-03-01T02:44:49.237Z,92.50
2018-03-01T02:47:15.846Z,92.20
2018-03-01T02:49:43.287Z,92.30
2018-03-01T02:52:10.709Z,92.30
2018-03-01T02:54:37.425Z,92.20
2018-03-01T02:57:04.005Z,92.30
2018-03-01T02:59:30.558Z,92.10
2018-03-01T03:01:57.119Z,92.30
2018-03-01T03:04:23.876Z,92.10
2018-03-01T03:06:50.587Z,92.00
2018-03-01T03:09:17.165Z,92.00
2018-03-01T03:11:43.754Z,92.00
2018-03-01T03:14:10.384Z,91.90
2018-03-01T03:16:37.445Z,92.10
2018-03-01T03:19:04.135Z,92.00
2018-03-01T03:21:31.417Z,92.20
2018-03-01T03:23:57.968Z,92.20
2018-03-01T03:26:24.536Z,92.10
2018-03-01T03:28:51.676Z,92.20
2018-03-01T03:31:18.821Z,92.20
2018-03-01T03:33:45.384Z,92.40
2018-03-01T03:36:12.662Z,92.30
2018-03-01T03:38:39.250Z,92.30
2018-03-01T03:41:06.871Z,92.40
2018-03-01T03:43:33.461Z,92.70
2018-03-01T03:46:00.189Z,92.90
2018-03-01T03:48:26.733Z,92.90
2018-03-01T03:50:53.296Z,93.00
2018-03-01T03:53:19.899Z,93.00
2018-03-01T03:55:47.206Z,93.30
2018-03-01T03:58:13.762Z,93.30
2018-03-01T04:00:40.394Z,93.30
2018-03-01T04:03:06.973Z,93.30
2018-03-01T04:05:33.519Z,93.30
2018-03-01T04:08:00.056Z,93.40
2018-03-01T04:10:27.324Z,93.40
2018-03-01T04:12:53.912Z,93.40
2018-03-01T04:15:20.499Z,93.30
2018-03-01T04:17:47.045Z,93.50
2018-03-01T04:20:13.610Z,93.50
2018-03-01T04:22:40.224Z,93.60
2018-03-01T04:25:07.546Z,93.40
2018-03-01T04:27:34.097Z,93.40
2018-03-01T04:30:00.674Z,93.30
2018-03-01T04:32:27.247Z,93.30
2018-03-01T04:34:53.777Z,93.30
2018-03-01T04:37:21.281Z,93.40
2018-03-01T04:39:47.839Z,93.30
2018-03-01T04:42:14.444Z,93.40
2018-03-01T04:44:41.027Z,93.40
2018-03-01T04:47:08.471Z,93.40
2018-03-01T04:49:35.812Z,93.50
2018-03-01T04:52:02.348Z,93.50
2018-03-01T04:54:28.886Z,93.40
2018-03-01T04:56:55.433Z,93.40
2018-03-01T04:59:23.127Z,93.10
2018-03-01T05:01:49.681Z,93.30
2018-03-01T05:04:16.220Z,93.10
2018-03-01T05:06:42.789Z,93.30
2018-03-01T05:09:09.346Z,93.20
2018-03-01T05:11:35.896Z,93.40
2018-03-01T05:14:03.336Z,92.80
2018-03-01T05:16:29.953Z,92.80
2018-03-01T05:18:56.552Z,92.90
2018-03-01T05:21:23.234Z,92.90
2018-03-01T05:23:50.056Z,92.80
2018-03-01T05:26:17.488Z,92.90
2018-03-01T05:28:44.171Z,92.90
2018-03-01T05:31:11.523Z,92.70
2018-03-01T05:33:38.072Z,92.40
2018-03-01T05:36:04.633Z,92.70
2018-03-01T05:38:31.411Z,92.50
2018-03-01T05:40:58.728Z,92.10
2018-03-01T05:43:25.502Z,92.10
2018-03-01T05:45:52.082Z,92.50
2018-03-01T05:48:19.377Z,92.40
2018-03-01T05:50:45.987Z,92.30
2018-03-01T05:53:12.538Z,92.10
2018-03-01T05:55:39.883Z,92.40
2018-03-01T05:58:06.677Z,92.40
2018-03-01T06:00:33.244Z,92.30
2018-03-01T06:02:59.921Z,92.50
2018-03-01T06:05:26.570Z,92.30
2018-03-01T06:07:53.133Z,92.20
2018-03-01T06:10:20.023Z,92.10
2018-03-01T06:12:46.595Z,92.30
2018-03-01T06:15:13.172Z,92.10
2018-03-01T06:17:39.724Z,92.10
2018-03-01T06:20:06.322Z,91.80
2018-03-01T06:22:33.405Z,91.80
2018-03-01T06:24:59.984Z,91.90
2018-03-01T06:27:26.812Z,92.00
2018-03-01T06:29:53.388Z,92.10
2018-03-01T06:32:19.994Z,92.10
2018-03-01T06:34:46.898Z,92.10
2018-03-01T06:37:13.628Z,92.10
2018-03-01T06:39:40.207Z,91.80
2018-03-01T06:42:06.758Z,92.00
2018-03-01T06:44:34.289Z,91.80
2018-03-01T06:47:00.941Z,91.80
2018-03-01T06:49:27.759Z,91.90
2018-03-01T06:51:54.546Z,91.90
2018-03-01T06:54:21.204Z,92.10
2018-03-01T06:56:47.864Z,92.00
2018-03-01T06:59:14.593Z,92.00
2018-03-01T07:01:41.225Z,92.00
2018-03-01T07:04:08.579Z,91.90
2018-03-01T07:06:36.317Z,92.10
2018-03-01T07:09:03.030Z,92.00
2018-03-01T07:11:29.907Z,92.20
2018-03-01T07:13:56.536Z,91.90
2018-03-01T07:16:28.077Z,91.80
2018-03-01T07:18:57.514Z,91.60
2018-03-01T07:21:24.237Z,91.60
2018-03-01T07:23:52.500Z,91.80
2018-03-01T07:26:19.067Z,91.80
2018-03-01T07:28:45.634Z,91.50
2018-03-01T07:31:12.957Z,91.60
2018-03-01T07:33:39.532Z,91.50
2018-03-01T07:36:09.729Z,91.50
2018-03-01T07:38:37.324Z,91.40
2018-03-01T07:41:03.927Z,91.20
2018-03-01T07:43:30.497Z,91.50
2018-03-01T07:45:57.047Z,91.30
2018-03-01T07:48:24.345Z,91.20
2018-03-01T07:50:50.941Z,91.20
2018-03-01T07:53:17.481Z,91.30
2018-03-01T07:55:44.060Z,91.40
2018-03-01T07:58:10.599Z,91.20
2018-03-01T08:00:37.123Z,91.10
2018-03-01T08:03:04.425Z,90.70
2018-03-01T08:05:30.992Z,90.70
2018-03-01T08:07:57.531Z,90.50
2018-03-01T08:10:25.161Z,90.50
2018-03-01T08:12:51.996Z,90.20
2018-03-01T08:15:18.565Z,90.40
2018-03-01T08:17:45.878Z,89.40
2018-03-01T08:20:12.805Z,89.30
2018-03-01T08:22:39.420Z,89.40
2018-03-01T08:25:06.026Z,89.30
2018-03-01T08:27:32.588Z,88.70
2018-03-01T08:29:59.133Z,88.40
2018-03-01T08:32:25.725Z,89.10
2018-03-01T08:34:53.015Z,87.70
2018-03-01T08:37:19.564Z,87.70
2018-03-01T08:39:46.153Z,87.60
2018-03-01T08:42:12.702Z,87.30
2018-03-01T08:44:39.273Z,87.20
2018-03-01T08:47:06.564Z,86.30
2018-03-01T08:49:33.143Z,86.30
2018-03-01T08:51:59.768Z,86.10
2018-03-01T08:54:26.391Z,86.20
2018-03-01T08:56:52.976Z,85.20
2018-03-01T08:59:19.521Z,84.90
2018-03-01T09:01:46.105Z,84.30
2018-03-01T09:04:12.769Z,83.60
2018-03-01T09:06:39.383Z,83.80
2018-03-01T09:09:05.954Z,83.20
2018-03-01T09:11:32.527Z,82.90
2018-03-01T09:13:59.130Z,82.90
2018-03-01T09:16:25.742Z,82.90
2018-03-01T09:18:52.822Z,82.40
2018-03-01T09:21:19.544Z,82.20
2018-03-01T09:23:46.097Z,82.10
2018-03-01T09:26:12.695Z,81.30
2018-03-01T09:28:39.242Z,82.40
2018-03-01T09:31:05.838Z,81.70
2018-03-01T09:33:36.197Z,80.20
2018-03-01T09:36:03.565Z,79.10
2018-03-01T09:38:31.739Z,80.00
2018-03-01T09:40:59.333Z,79.40
2018-03-01T09:43:26.643Z,78.30
2018-03-01T09:45:53.282Z,78.20
2018-03-01T09:48:19.959Z,77.80
2018-03-01T09:50:46.483Z,77.50
2018-03-01T09:53:13.019Z,77.20
2018-03-01T09:55:39.601Z,76.90
2018-03-01T09:58:06.243Z,76.70
2018-03-01T10:00:33.248Z,75.30
2018-03-01T10:03:00.611Z,74.70
2018-03-01T10:05:27.291Z,74.60
2018-03-01T10:07:53.907Z,75.00
2018-03-01T10:10:20.622Z,74.30
2018-03-01T10:12:47.315Z,72.70
2018-03-01T10:15:13.964Z,73.80
2018-03-01T10:17:40.510Z,72.50
2018-03-01T10:20:07.065Z,73.90
2018-03-01T10:22:34.487Z,72.10
2018-03-01T10:25:01.063Z,72.10
2018-03-01T10:27:27.640Z,71.70
2018-03-01T10:29:54.284Z,70.80
2018-03-01T10:32:21.662Z,69.30
2018-03-01T10:34:48.996Z,70.30
2018-03-01T10:37:15.585Z,70.40
2018-03-01T10:39:42.156Z,69.80
2018-03-01T10:42:08.782Z,69.10
2018-03-01T10:44:36.152Z,68.30
2018-03-01T10:47:02.716Z,68.10
2018-03-01T10:49:29.284Z,68.80
2018-03-01T10:51:55.894Z,67.00
2018-03-01T10:54:23.181Z,66.70
2018-03-01T10:56:49.745Z,66.50
2018-03-01T10:59:16.336Z,67.40
2018-03-01T11:04:51.765Z,64.20
2018-03-01T11:07:34.518Z,64.20
2018-03-01T11:10:01.661Z,64.40
2018-03-01T11:12:28.279Z,63.40
2018-03-01T11:14:55.927Z,61.80
2018-03-01T11:17:22.520Z,63.10
2018-03-01T11:19:49.436Z,61.40
2018-03-01T11:22:21.120Z,60.70
2018-03-01T11:24:49.270Z,60.90
2018-03-01T11:27:15.937Z,60.80
2018-03-01T11:29:49.597Z,59.40
2018-03-01T11:32:16.164Z,61.30
2018-03-01T11:34:42.829Z,60.30
2018-03-01T11:37:09.377Z,59.20
2018-03-01T11:39:36.831Z,60.20
2018-03-01T11:42:04.379Z,57.70
2018-03-01T11:44:31.143Z,57.50
2018-03-01T11:46:57.780Z,57.60
2018-03-01T11:49:24.380Z,57.00
2018-03-01T11:51:51.000Z,56.90
2018-03-01T11:54:17.654Z,57.60
2018-03-01T11:56:44.317Z,56.60
2018-03-01T11:59:10.971Z,56.30
2018-03-01T12:01:37.567Z,56.10
2018-03-01T12:04:04.941Z,55.60
2018-03-01T12:06:32.243Z,56.00
2018-03-01T12:08:58.801Z,56.00
2018-03-01T12:11:25.447Z,54.70
2018-03-01T12:13:52.110Z,55.00
2018-03-01T12:16:18.756Z,54.50
2018-03-01T12:18:45.429Z,53.90
2018-03-01T12:21:12.146Z,53.80
2018-03-01T12:23:38.823Z,54.50
2018-03-01T12:26:05.422Z,53.40
2018-03-01T12:28:33.836Z,52.80
2018-03-01T12:31:03.433Z,52.20
2018-03-01T12:33:31.167Z,51.80
2018-03-01T12:35:58.502Z,52.10
2018-03-01T12:38:25.986Z,51.70
2018-03-01T12:40:53.152Z,51.70
2018-03-01T12:43:19.881Z,51.20
2018-03-01T12:45:46.545Z,51.70
2018-03-01T12:48:14.062Z,50.90
2018-03-01T12:50:41.312Z,51.60
2018-03-01T12:53:08.026Z,50.80
2018-03-01T12:55:34.671Z,51.20
2018-03-01T12:58:01.337Z,51.20
2018-03-01T13:00:29.664Z,51.70
2018-03-01T13:02:58.366Z,51.20
2018-03-01T13:05:25.787Z,51.10
2018-03-01T13:07:52.436Z,51.00
2018-03-01T13:10:19.440Z,51.70
2018-03-01T13:12:46.122Z,50.50
2018-03-01T13:15:12.838Z,49.70
2018-03-01T13:17:39.532Z,50.00
2018-03-01T13:20:06.260Z,49.70
2018-03-01T13:22:33.827Z,50.00
2018-03-01T13:25:20.260Z,49.90
2018-03-01T13:27:46.981Z,50.30
2018-03-01T13:36:25.851Z,49.50
2018-03-01T13:38:52.582Z,49.20
2018-03-01T13:41:21.180Z,49.00
2018-03-01T13:43:48.442Z,49.40
2018-03-01T13:46:17.036Z,48.60
2018-03-01T13:48:43.811Z,48.80
2018-03-01T13:51:10.644Z,49.40
2018-03-01T13:53:38.751Z,49.80
2018-03-01T13:56:05.422Z,49.30
2018-03-01T13:58:32.578Z,49.40
2018-03-01T14:00:59.589Z,48.40
2018-03-01T14:03:26.650Z,48.80
2018-03-01T14:05:54.510Z,49.40
2018-03-01T14:08:23.987Z,48.10
2018-03-01T14:10:50.674Z,48.40
2018-03-01T14:13:27.701Z,48.10
2018-03-01T14:16:08.550Z,48.10
2018-03-01T14:18:41.725Z,48.40
2018-03-01T14:21:14.395Z,48.30
2018-03-01T14:23:47.736Z,48.70
2018-03-01T14:26:18.428Z,48.60
2018-03-01T14:28:47.127Z,48.60
2018-03-01T14:31:14.151Z,49.10
2018-03-01T14:33:40.733Z,48.70
2018-03-01T14:36:07.358Z,49.00
2018-03-01T14:38:45.905Z,48.70
2018-03-01T14:41:27.903Z,48.20
2018-03-01T14:43:54.550Z,48.10
2018-03-01T14:46:31.562Z,48.50
2018-03-01T14:48:59.223Z,48.80
2018-03-01T14:51:25.865Z,48.70
2018-03-01T14:53:58.491Z,47.60
2018-03-01T14:56:25.672Z,48.30
2018-03-01T14:58:52.687Z,48.40
2018-03-01T15:01:31.548Z,47.50
2018-03-01T15:03:59.054Z,47.80
2018-03-01T15:09:25.802Z,48.50
2018-03-01T15:11:53.100Z,47.70
2018-03-01T15:14:20.474Z,47.80
2018-03-01T15:19:42.952Z,47.90
2018-03-01T15:22:09.831Z,48.50
2018-03-01T15:27:31.112Z,48.70
2018-03-01T15:33:14.591Z,48.10
2018-03-01T15:38:51.899Z,47.90
2018-03-01T15:41:18.630Z,48.50
2018-03-01T15:43:45.277Z,49.00
2018-03-01T15:46:11.952Z,48.50
2018-03-01T15:48:38.720Z,48.30
2018-03-01T15:54:17.698Z,48.50
2018-03-01T15:56:45.408Z,48.30
2018-03-01T15:59:12.767Z,48.50
2018-03-01T16:02:06.527Z,48.60
2018-03-01T16:07:53.232Z,47.80
2018-03-01T16:10:23.101Z,48.00
2018-03-01T16:12:51.402Z,48.90
2018-03-01T16:15:19.735Z,48.50
2018-03-01T16:17:54.116Z,48.40
2018-03-01T16:20:27.293Z,48.80
2018-03-01T16:29:15.503Z,49.40
2018-03-01T16:32:10.537Z,48.60
2018-03-01T16:40:51.197Z,49.80
2018-03-01T16:43:18.529Z,50.00
2018-03-01T16:48:55.815Z,50.60
2018-03-01T16:54:35.283Z,50.60
2018-03-01T16:57:03.986Z,51.20
2018-03-01T16:59:30.615Z,51.60
2018-03-01T17:01:57.239Z,51.30
2018-03-01T17:04:24.603Z,51.70
2018-03-01T17:06:51.288Z,51.50
2018-03-01T17:09:17.928Z,52.10
2018-03-01T17:11:44.522Z,51.90
2018-03-01T17:14:16.515Z,52.20
2018-03-01T17:16:43.359Z,51.70
2018-03-01T17:22:05.287Z,52.20
2018-03-01T17:24:32.126Z,52.20
2018-03-01T17:26:58.836Z,52.60
2018-03-01T17:29:25.491Z,52.60
2018-03-01T17:32:03.064Z,53.10
2018-03-01T17:34:29.754Z,53.40
2018-03-01T17:36:56.492Z,53.10
2018-03-01T17:39:23.147Z,53.50
2018-03-01T17:41:49.873Z,52.90
2018-03-01T17:44:21.139Z,53.30
2018-03-01T17:46:48.015Z,53.40
2018-03-01T17:49:14.654Z,53.20
2018-03-01T17:51:41.309Z,53.60
2018-03-01T17:59:44.348Z,53.90
2018-03-01T18:04:54.429Z,53.90
2018-03-01T18:07:38.086Z,54.00
2018-03-01T18:12:37.931Z,54.60
2018-03-01T18:15:04.577Z,54.70
2018-03-01T18:17:31.334Z,55.40
2018-03-01T18:19:58.245Z,54.90
2018-03-01T18:22:25.521Z,55.60
2018-03-01T18:24:52.368Z,55.00
2018-03-01T18:27:21.127Z,55.00
2018-03-01T18:29:47.946Z,55.10
2018-03-01T18:32:16.516Z,55.40
2018-03-01T18:34:43.153Z,55.40
2018-03-01T18:37:17.427Z,55.30
2018-03-01T18:40:02.966Z,55.60
2018-03-01T18:45:19.378Z,55.70
2018-03-01T18:47:48.721Z,56.10
2018-03-01T18:52:53.821Z,56.80
2018-03-01T18:55:21.381Z,57.30
2018-03-01T19:00:29.487Z,57.60
2018-03-01T19:02:56.650Z,57.60
2018-03-01T19:05:25.397Z,57.80
2018-03-01T19:07:54.908Z,57.90
2018-03-01T19:10:23.477Z,58.70
2018-03-01T19:15:57.009Z,58.60
2018-03-01T19:18:26.095Z,59.30
2018-03-01T19:21:00.259Z,58.90
2018-03-01T19:23:29.075Z,59.10
2018-03-01T19:25:56.250Z,59.00
2018-03-01T19:28:23.260Z,60.10
2018-03-01T19:30:50.242Z,60.40
2018-03-01T19:33:17.318Z,60.70
2018-03-01T19:35:44.147Z,60.40
2018-03-01T19:44:08.231Z,61.40
2018-03-01T19:46:35.521Z,61.60
2018-03-01T19:55:13.260Z,63.00
2018-03-01T20:04:00.747Z,63.00
2018-03-01T20:10:07.372Z,64.60
2018-03-01T20:12:36.178Z,64.20
2018-03-01T20:15:03.306Z,64.90
2018-03-01T20:20:40.809Z,64.70
2018-03-01T20:41:01.471Z,66.50
2018-03-01T20:49:28.161Z,67.50
2018-03-01T20:54:46.599Z,67.60
2018-03-01T21:00:23.244Z,68.20
2018-03-01T21:06:09.673Z,68.80
2018-03-01T21:14:56.103Z,69.50
2018-03-01T21:17:46.129Z,69.70
2018-03-01T21:20:34.028Z,70.00
2018-03-01T21:23:01.597Z,70.40
2018-03-01T21:25:29.776Z,71.30
2018-03-01T21:41:03.852Z,71.60
2018-03-01T21:43:30.864Z,71.60
2018-03-01T21:45:57.646Z,72.10
2018-03-01T21:48:24.688Z,73.00
2018-03-01T21:54:11.083Z,73.00
2018-03-01T22:05:33.469Z,74.40
2018-03-01T22:14:29.889Z,74.90
2018-03-01T22:16:58.045Z,75.50
2018-03-01T22:19:48.343Z,75.70
2018-03-01T22:22:15.084Z,75.60
2018-03-01T22:24:41.729Z,75.90
2018-03-01T22:27:35.577Z,76.90
2018-03-01T22:30:17.628Z,76.30
2018-03-01T22:32:45.130Z,77.80
2018-03-01T22:35:12.002Z,78.20
2018-03-01T22:37:46.690Z,77.80
2018-03-01T22:40:13.329Z,76.80
2018-03-01T22:42:40.259Z,77.50
2018-03-01T22:48:31.414Z,79.00
2018-03-01T22:51:12.394Z,79.00
2018-03-01T22:53:39.092Z,79.60
2018-03-01T22:56:05.689Z,79.60
2018-03-01T22:58:32.619Z,80.10
2018-03-01T23:00:59.320Z,79.90
2018-03-01T23:03:25.968Z,80.00
2018-03-01T23:05:52.605Z,80.10
2018-03-01T23:08:19.276Z,80.50
2018-03-01T23:10:45.881Z,80.80
2018-03-01T23:13:35.206Z,80.60
2018-03-01T23:30:27.977Z,82.50
2018-03-01T23:33:00.995Z,82.70
2018-03-01T23:35:28.550Z,82.10
2018-03-01T23:37:55.184Z,82.10
2018-03-01T23:40:21.905Z,82.00
2018-03-01T23:42:48.581Z,82.50
2018-03-01T23:45:22.833Z,83.10
2018-03-01T23:47:50.159Z,82.70
2018-03-01T23:50:17.368Z,82.80
2018-03-01T23:52:44.053Z,82.60
2018-03-01T23:55:11.374Z,83.50
2018-03-01T23:57:41.216Z,83.50
